createdAt,value
2024-01-05T00:03:05.204Z,9.77
2024-01-05T00:05:32.378Z,10.63
2024-01-05T00:07:59.419Z,9.73
2024-01-05T00:10:26.362Z,10.85
2024-01-05T00:12:53.330Z,10.45
2024-01-05T00:15:21.338Z,10.48
2024-01-05T00:17:48.434Z,10.13
2024-01-05T00:20:15.654Z,10.10
2024-01-05T00:22:42.610Z,9.82
2024-01-05T00:25:09.755Z,10.50
2024-01-05T00:27:36.749Z,10.77
2024-01-05T00:30:05.939Z,9.88
2024-01-05T00:32:33.124Z,8.80
2024-01-05T00:35:00.067Z,10.70
2024-01-05T00:37:26.865Z,11.50
2024-01-05T00:39:53.772Z,10.40
2024-01-05T00:42:20.774Z,9.70
2024-01-05T00:44:47.891Z,10.15
2024-01-05T00:47:14.818Z,10.90
2024-01-05T00:49:41.915Z,10.70
2024-01-05T00:52:08.858Z,10.45
2024-01-05T00:54:35.869Z,10.20
2024-01-05T00:57:02.849Z,10.23
2024-01-05T00:59:29.832Z,10.18
2024-01-05T01:01:56.688Z,9.15
2024-01-05T01:04:24.099Z,10.55
2024-01-05T01:06:51.896Z,10.80
2024-01-05T01:09:18.913Z,10.20
2024-01-05T01:11:45.789Z,10.23
2024-01-05T01:14:12.637Z,10.00
2024-01-05T01:16:39.738Z,11.70
2024-01-05T01:19:06.849Z,10.65
2024-01-05T01:21:34.117Z,11.10
2024-01-05T01:24:01.209Z,10.35
2024-01-05T01:26:28.130Z,10.63
2024-01-05T01:28:55.034Z,11.68
2024-01-05T01:31:21.920Z,11.35
2024-01-05T01:33:48.875Z,10.85
2024-01-05T01:36:15.979Z,11.15
2024-01-05T01:38:42.868Z,11.57
2024-01-05T01:41:09.714Z,11.98
2024-01-05T01:43:36.686Z,10.43
2024-01-05T01:46:03.682Z,11.13
2024-01-05T01:48:31.801Z,10.43
2024-01-05T01:51:00.215Z,10.60
2024-01-05T01:53:28.989Z,10.48
2024-01-05T01:55:56.912Z,9.43
2024-01-05T01:58:24.834Z,11.13
2024-01-05T02:00:52.666Z,10.27
2024-01-05T02:03:20.387Z,10.52
2024-01-05T02:05:48.845Z,11.68
2024-01-05T02:08:16.344Z,11.43
2024-01-05T02:10:43.338Z,11.32
2024-01-05T02:13:10.597Z,10.93
2024-01-05T02:15:37.454Z,11.48
2024-01-05T02:18:14.899Z,11.45
2024-01-05T02:20:46.177Z,11.48
2024-01-05T02:23:27.873Z,12.30
2024-01-05T02:25:59.029Z,12.50
2024-01-05T02:28:26.354Z,12.82
2024-01-05T02:30:57.391Z,12.02
2024-01-05T02:33:25.474Z,13.70
2024-01-05T02:35:52.745Z,13.15
2024-01-05T02:38:19.745Z,14.63
2024-01-05T02:40:46.622Z,13.20
2024-01-05T02:43:13.541Z,14.13
2024-01-05T02:45:40.609Z,13.48
2024-01-05T02:48:08.458Z,13.38
2024-01-05T02:50:35.454Z,13.07
2024-01-05T02:53:02.500Z,13.90
2024-01-05T02:55:29.389Z,14.18
2024-01-05T02:57:56.348Z,14.25
2024-01-05T03:00:23.466Z,14.27
2024-01-05T03:02:50.452Z,14.38
2024-01-05T03:05:17.402Z,15.80
2024-01-05T03:07:44.746Z,14.35
2024-01-05T03:10:11.992Z,14.95
2024-01-05T03:12:38.887Z,15.27
2024-01-05T03:15:06.425Z,15.32
2024-01-05T03:17:33.586Z,14.65
2024-01-05T03:20:00.690Z,14.82
2024-01-05T03:22:31.261Z,13.65
2024-01-05T03:24:59.045Z,13.65
2024-01-05T03:27:25.960Z,14.38
2024-01-05T03:29:53.065Z,13.50
2024-01-05T03:32:20.041Z,14.50
2024-01-05T03:34:46.984Z,15.38
2024-01-05T03:37:13.852Z,16.02
2024-01-05T03:39:40.741Z,15.63
2024-01-05T03:42:07.772Z,16.27
2024-01-05T03:44:34.638Z,16.30
2024-01-05T03:47:01.627Z,16.85
2024-01-05T03:49:29.164Z,16.55
2024-01-05T03:51:56.114Z,16.88
2024-01-05T03:54:23.073Z,16.25
2024-01-05T03:56:49.979Z,15.88
2024-01-05T03:59:16.857Z,16.65
2024-01-05T04:01:48.431Z,17.40
2024-01-05T04:04:15.425Z,16.98
2024-01-05T04:06:43.514Z,16.73
2024-01-05T04:09:13.571Z,16.27
2024-01-05T04:11:40.961Z,17.83
2024-01-05T04:14:08.668Z,18.58
2024-01-05T04:16:36.163Z,17.60
2024-01-05T04:19:03.737Z,16.70
2024-01-05T04:21:31.480Z,17.65
2024-01-05T04:23:58.719Z,17.58
2024-01-05T04:26:26.440Z,17.58
2024-01-05T04:28:53.699Z,18.17
2024-01-05T04:31:20.650Z,19.50
2024-01-05T04:33:47.844Z,17.75
2024-01-05T04:36:18.060Z,19.30
2024-01-05T04:38:45.364Z,18.33
2024-01-05T04:41:15.149Z,18.42
2024-01-05T04:43:42.068Z,20.25
2024-01-05T04:46:09.405Z,20.58
2024-01-05T04:48:36.794Z,19.88
2024-01-05T04:51:04.799Z,20.75
2024-01-05T04:53:31.752Z,21.02
2024-01-05T04:55:58.755Z,20.23
2024-01-05T04:58:25.751Z,19.55
2024-01-05T05:00:52.945Z,19.83
2024-01-05T05:03:19.993Z,21.42
2024-01-05T05:05:47.346Z,19.67
2024-01-05T05:08:16.071Z,20.55
2024-01-05T05:10:43.308Z,19.73
2024-01-05T05:13:10.872Z,20.13
2024-01-05T05:15:39.143Z,20.27
2024-01-05T05:18:06.390Z,20.02
2024-01-05T05:20:34.108Z,19.02
2024-01-05T05:23:01.122Z,20.80
2024-01-05T05:25:28.075Z,18.30
2024-01-05T05:27:55.226Z,18.60
2024-01-05T05:30:22.495Z,17.55
2024-01-05T05:32:49.597Z,18.08
2024-01-05T05:35:16.696Z,18.55
2024-01-05T05:37:43.698Z,18.95
2024-01-05T05:40:12.095Z,19.77
2024-01-05T05:42:39.124Z,19.65
2024-01-05T05:45:06.485Z,20.05
2024-01-05T05:47:33.524Z,20.08
2024-01-05T05:50:00.482Z,20.52
2024-01-05T05:52:29.725Z,20.48
2024-01-05T05:54:57.632Z,22.95
2024-01-05T05:57:24.549Z,21.55
2024-01-05T05:59:52.742Z,22.48
2024-01-05T06:02:19.931Z,22.80
2024-01-05T06:04:46.981Z,23.83
2024-01-05T06:07:13.915Z,25.80
2024-01-05T06:09:40.870Z,24.25
2024-01-05T06:12:08.351Z,24.40
2024-01-05T06:14:35.185Z,25.90
2024-01-05T06:17:02.073Z,26.35
2024-01-05T06:19:29.301Z,25.55
2024-01-05T06:21:58.556Z,27.00
2024-01-05T06:24:25.806Z,24.90
2024-01-05T06:26:52.947Z,27.05
2024-01-05T06:29:19.901Z,27.10
2024-01-05T06:31:47.187Z,26.60
2024-01-05T06:34:14.413Z,26.80
2024-01-05T06:36:41.561Z,27.20
2024-01-05T06:39:08.797Z,27.83
2024-01-05T06:41:35.823Z,28.65
2024-01-05T06:44:03.618Z,30.05
2024-01-05T06:46:31.825Z,28.52
2024-01-05T06:48:58.939Z,27.77
2024-01-05T06:51:31.097Z,28.83
2024-01-05T06:54:01.045Z,28.73
2024-01-05T06:56:32.986Z,30.27
2024-01-05T06:59:05.389Z,31.17
2024-01-05T07:01:32.546Z,30.50
2024-01-05T07:03:59.565Z,30.10
2024-01-05T07:06:26.561Z,29.52
2024-01-05T07:08:53.550Z,31.02
2024-01-05T07:11:24.609Z,29.80
2024-01-05T07:13:52.097Z,30.95
2024-01-05T07:16:20.321Z,29.20
2024-01-05T07:18:48.158Z,30.90
2024-01-05T07:21:15.892Z,30.88
2024-01-05T07:23:44.155Z,30.20
2024-01-05T07:26:11.230Z,31.02
2024-01-05T07:28:39.063Z,31.25
2024-01-05T07:31:06.599Z,30.08
2024-01-05T07:33:34.097Z,29.48
2024-01-05T07:36:07.394Z,33.00
2024-01-05T07:41:03.206Z,30.90
2024-01-05T07:43:31.353Z,31.40
2024-01-05T07:45:58.296Z,32.58
2024-01-05T07:48:25.471Z,32.28
2024-01-05T07:50:52.552Z,31.95
2024-01-05T07:53:21.697Z,31.35
2024-01-05T07:55:48.687Z,32.13
2024-01-05T07:58:15.725Z,32.25
2024-01-05T08:00:42.739Z,33.13
2024-01-05T08:03:11.406Z,32.75
2024-01-05T08:05:39.238Z,31.98
2024-01-05T08:08:06.438Z,32.85
2024-01-05T08:10:33.455Z,33.03
2024-01-05T08:13:02.432Z,33.35
2024-01-05T08:15:29.342Z,33.28
2024-01-05T08:17:56.384Z,33.13
2024-01-05T08:20:23.531Z,34.15
2024-01-05T08:22:50.483Z,33.90
2024-01-05T08:25:18.798Z,34.63
2024-01-05T08:27:47.016Z,31.95
2024-01-05T08:30:14.383Z,30.27
2024-01-05T08:32:44.693Z,33.22
2024-01-05T08:35:11.695Z,32.85
2024-01-05T08:37:39.700Z,31.60
2024-01-05T08:40:08.750Z,32.70
2024-01-05T08:42:35.886Z,30.60
2024-01-05T08:45:02.892Z,30.85
2024-01-05T08:47:31.164Z,31.23
2024-01-05T08:49:58.160Z,30.23
2024-01-05T08:52:25.191Z,31.25
2024-01-05T08:54:55.159Z,31.55
2024-01-05T08:57:22.378Z,30.90
2024-01-05T08:59:49.345Z,30.67
2024-01-05T09:02:16.333Z,30.27
2024-01-05T09:04:43.305Z,30.70
2024-01-05T09:07:10.363Z,29.00
2024-01-05T09:09:37.269Z,28.33
2024-01-05T09:12:07.516Z,30.00
2024-01-05T09:14:34.481Z,30.27
2024-01-05T09:17:01.986Z,29.13
2024-01-05T09:19:29.203Z,28.95
2024-01-05T09:21:56.413Z,30.17
2024-01-05T09:24:23.324Z,31.35
2024-01-05T09:26:50.257Z,29.65
2024-01-05T09:29:17.375Z,30.23
2024-01-05T09:31:48.994Z,28.95
2024-01-05T09:34:16.163Z,30.13
2024-01-05T09:36:43.128Z,29.73
2024-01-05T09:39:12.899Z,27.70
2024-01-05T09:41:47.379Z,28.05
2024-01-05T09:44:14.592Z,28.83
2024-01-05T09:46:42.828Z,29.20
2024-01-05T09:49:10.630Z,28.90
2024-01-05T09:51:38.331Z,29.20
2024-01-05T09:54:05.782Z,31.45
2024-01-05T09:56:33.738Z,30.20
2024-01-05T09:59:01.492Z,27.67
2024-01-05T10:01:34.550Z,27.50
2024-01-05T10:04:04.695Z,26.98
2024-01-05T10:06:32.160Z,24.48
2024-01-05T10:09:00.698Z,23.83
2024-01-05T10:11:35.198Z,24.98
2024-01-05T10:14:06.557Z,24.20
2024-01-05T10:16:42.900Z,22.60
2024-01-05T10:19:18.083Z,23.10
2024-01-05T10:21:49.689Z,24.75
2024-01-05T10:24:24.570Z,21.90
2024-01-05T10:27:13.790Z,19.67
2024-01-05T10:29:44.405Z,16.50
2024-01-05T10:32:12.974Z,15.13
2024-01-05T10:34:48.090Z,12.27
2024-01-05T10:37:20.509Z,7.95
2024-01-05T10:39:55.356Z,7.10
2024-01-05T10:42:29.333Z,4.78
2024-01-05T10:44:58.673Z,4.68
2024-01-05T10:47:30.588Z,3.80
2024-01-05T10:49:58.752Z,3.78
2024-01-05T10:52:29.288Z,3.53
2024-01-05T10:54:56.434Z,4.55
2024-01-05T10:57:25.188Z,6.95
2024-01-05T10:59:55.599Z,11.07
2024-01-05T11:02:40.634Z,13.57
2024-01-05T11:05:16.613Z,13.20
2024-01-05T11:07:44.134Z,17.45
2024-01-05T11:10:35.432Z,16.75
2024-01-05T11:13:43.119Z,17.10
2024-01-05T11:16:16.299Z,17.38
2024-01-05T11:18:57.172Z,17.13
2024-01-05T11:21:37.244Z,17.33
2024-01-05T11:24:04.777Z,19.00
2024-01-05T11:26:40.379Z,15.98
2024-01-05T11:29:13.524Z,8.23
2024-01-05T11:31:46.560Z,5.18
2024-01-05T11:34:37.732Z,2.80
2024-01-05T11:37:06.141Z,2.83
2024-01-05T11:39:49.745Z,10.48
2024-01-05T11:42:26.262Z,9.18
2024-01-05T11:44:53.772Z,17.15
2024-01-05T11:47:42.662Z,5.65
2024-01-05T11:50:29.116Z,2.45
2024-01-05T11:53:12.710Z,10.35
2024-01-05T11:55:46.265Z,3.05
2024-01-05T11:58:18.859Z,2.47
2024-01-05T12:00:48.386Z,2.10
2024-01-05T12:03:17.135Z,1.92
2024-01-05T12:05:47.141Z,1.20
2024-01-05T12:08:16.005Z,1.10
2024-01-05T12:10:43.220Z,1.80
2024-01-05T12:13:10.182Z,1.17
2024-01-05T12:15:44.209Z,1.45
2024-01-05T12:18:27.495Z,1.40
2024-01-05T12:20:59.891Z,1.30
2024-01-05T12:23:27.829Z,2.90
2024-01-05T12:26:05.746Z,2.00
2024-01-05T12:28:38.038Z,2.15
2024-01-05T12:31:07.061Z,1.77
2024-01-05T12:33:36.858Z,2.03
2024-01-05T12:36:07.208Z,2.60
2024-01-05T12:38:36.615Z,2.60
2024-01-05T12:41:17.417Z,3.17
2024-01-05T12:43:48.586Z,2.08
2024-01-05T12:46:16.472Z,2.10
2024-01-05T12:48:43.699Z,2.20
2024-01-05T12:51:13.189Z,1.67
2024-01-05T12:53:40.046Z,2.00
2024-01-05T12:56:18.784Z,2.10
2024-01-05T12:58:49.493Z,1.92
2024-01-05T13:01:21.533Z,1.60
2024-01-05T13:03:53.613Z,1.48
2024-01-05T13:06:22.783Z,0.90
2024-01-05T13:08:50.177Z,1.30
2024-01-05T13:11:21.886Z,1.58
2024-01-05T13:13:53.434Z,4.15
2024-01-05T13:16:20.845Z,7.60
2024-01-05T13:18:48.269Z,4.47
2024-01-05T13:21:15.609Z,4.45
2024-01-05T13:23:44.136Z,2.15
2024-01-05T13:26:11.341Z,1.80
2024-01-05T13:28:38.575Z,1.63
2024-01-05T13:31:06.343Z,1.80
2024-01-05T13:33:34.208Z,1.75
2024-01-05T13:36:01.390Z,1.70
2024-01-05T13:38:28.824Z,1.83
2024-01-05T13:40:55.726Z,2.03
2024-01-05T13:43:24.002Z,1.92
2024-01-05T13:45:52.912Z,1.50
2024-01-05T13:48:20.127Z,1.52
2024-01-05T13:50:47.166Z,1.73
2024-01-05T13:53:16.421Z,1.45
2024-01-05T13:55:43.330Z,1.45
2024-01-05T13:58:10.335Z,2.17
2024-01-05T14:00:37.446Z,1.25
2024-01-05T14:03:05.619Z,1.10
2024-01-05T14:05:32.830Z,2.38
2024-01-05T14:08:00.550Z,1.88
2024-01-05T14:10:27.567Z,1.55
2024-01-05T14:12:56.904Z,1.90
2024-01-05T14:15:25.298Z,1.90
2024-01-05T14:17:52.247Z,1.55
2024-01-05T14:20:19.488Z,1.80
2024-01-05T14:22:46.382Z,2.25
2024-01-05T14:25:13.993Z,1.88
2024-01-05T14:27:41.701Z,2.58
2024-01-05T14:30:09.908Z,2.45
2024-01-05T14:32:37.083Z,2.78
2024-01-05T14:35:06.797Z,2.72
2024-01-05T14:37:34.352Z,3.05
2024-01-05T14:40:01.351Z,4.07
2024-01-05T14:42:28.429Z,4.53
2024-01-05T14:44:55.545Z,4.43
2024-01-05T14:47:22.736Z,3.83
2024-01-05T14:49:51.234Z,3.33
2024-01-05T14:52:18.310Z,3.58
2024-01-05T14:54:45.389Z,3.92
2024-01-05T14:57:17.932Z,4.15
2024-01-05T14:59:44.825Z,4.20
2024-01-05T15:02:11.712Z,4.60
2024-01-05T15:04:38.661Z,4.47
2024-01-05T15:07:05.600Z,4.47
2024-01-05T15:09:32.566Z,4.57
2024-01-05T15:12:00.586Z,5.20
2024-01-05T15:14:28.758Z,5.20
2024-01-05T15:16:55.715Z,5.32
2024-01-05T15:19:22.776Z,5.70
2024-01-05T15:21:49.732Z,5.78
2024-01-05T15:24:16.827Z,6.20
2024-01-05T15:26:45.267Z,6.20
2024-01-05T15:29:15.978Z,6.18
2024-01-05T15:31:43.150Z,6.95
2024-01-05T15:34:10.257Z,6.03
2024-01-05T15:36:37.450Z,6.78
2024-01-05T15:39:07.492Z,5.55
2024-01-05T15:41:35.283Z,6.07
2024-01-05T15:44:02.371Z,6.80
2024-01-05T15:46:29.369Z,6.38
2024-01-05T15:48:56.897Z,6.72
2024-01-05T15:51:26.968Z,7.78
2024-01-05T15:53:57.500Z,7.03
2024-01-05T15:56:28.392Z,6.93
2024-01-05T15:58:56.103Z,7.80
2024-01-05T16:01:23.111Z,7.72
2024-01-05T16:03:50.470Z,7.35
2024-01-05T16:06:17.477Z,8.20
2024-01-05T16:08:44.473Z,8.27
2024-01-05T16:11:11.403Z,8.65
2024-01-05T16:13:38.342Z,8.50
2024-01-05T16:16:21.346Z,8.55
2024-01-05T16:18:50.330Z,9.60
2024-01-05T16:21:28.171Z,9.57
2024-01-05T16:23:56.541Z,9.75
2024-01-05T16:26:24.713Z,9.85
2024-01-05T16:28:52.318Z,8.88
2024-01-05T16:31:21.265Z,12.63
2024-01-05T16:33:49.062Z,9.90
2024-01-05T16:36:17.467Z,10.55
2024-01-05T16:38:45.750Z,10.48
2024-01-05T16:41:14.526Z,9.63
2024-01-05T16:43:41.843Z,10.00
2024-01-05T16:46:09.213Z,10.27
2024-01-05T16:48:36.538Z,10.73
2024-01-05T16:51:03.771Z,10.57
2024-01-05T16:53:30.858Z,10.73
2024-01-05T16:55:58.286Z,11.02
2024-01-05T16:58:25.513Z,11.60
2024-01-05T17:00:52.654Z,11.73
2024-01-05T17:03:19.823Z,10.90
2024-01-05T17:05:48.547Z,15.68
2024-01-05T17:08:15.825Z,12.45
2024-01-05T17:10:42.825Z,11.80
2024-01-05T17:13:09.802Z,12.32
2024-01-05T17:15:36.844Z,12.55
2024-01-05T17:18:04.246Z,12.35
2024-01-05T17:20:31.791Z,14.35
2024-01-05T17:22:59.797Z,14.20
2024-01-05T17:25:28.034Z,16.73
2024-01-05T17:27:54.954Z,28.00
2024-01-05T17:30:22.052Z,35.05
2024-01-05T17:32:50.586Z,24.73
2024-01-05T17:35:17.605Z,22.75
2024-01-05T17:37:44.703Z,21.10
2024-01-05T17:40:11.948Z,17.33
2024-01-05T17:42:39.487Z,17.80
2024-01-05T17:45:09.946Z,17.17
2024-01-05T17:47:36.899Z,20.33
2024-01-05T17:50:03.906Z,21.42
2024-01-05T17:52:30.903Z,20.42
2024-01-05T17:54:57.788Z,19.25
2024-01-05T17:57:25.865Z,22.90
2024-01-05T17:59:53.315Z,24.02
2024-01-05T18:02:20.448Z,24.42
2024-01-05T18:04:50.008Z,21.17
2024-01-05T18:07:18.071Z,22.35
2024-01-05T18:09:45.498Z,22.25
2024-01-05T18:12:12.443Z,21.75
2024-01-05T18:14:39.701Z,22.80
2024-01-05T18:17:06.739Z,23.55
2024-01-05T18:19:34.140Z,25.02
2024-01-05T18:22:01.532Z,21.10
2024-01-05T18:24:28.993Z,22.13
2024-01-05T18:26:55.960Z,24.98
2024-01-05T18:29:28.780Z,22.77
2024-01-05T18:32:00.389Z,17.73
2024-01-05T18:34:49.969Z,17.55
2024-01-05T18:37:17.746Z,14.85
2024-01-05T18:39:47.722Z,13.20
2024-01-05T18:42:14.910Z,11.38
2024-01-05T18:44:43.021Z,10.75
2024-01-05T18:47:10.083Z,11.80
2024-01-05T18:49:37.112Z,11.68
2024-01-05T18:52:04.243Z,12.90
2024-01-05T18:54:31.289Z,14.45
2024-01-05T18:57:01.221Z,16.08
2024-01-05T18:59:28.233Z,17.25
2024-01-05T19:01:55.614Z,17.63
2024-01-05T19:04:22.896Z,17.17
2024-01-05T19:06:50.028Z,19.00
2024-01-05T19:09:18.333Z,17.48
2024-01-05T19:11:47.367Z,18.67
2024-01-05T19:14:17.542Z,18.35
2024-01-05T19:16:44.870Z,19.55
2024-01-05T19:19:15.748Z,20.02
2024-01-05T19:21:53.108Z,19.13
2024-01-05T19:24:24.369Z,19.65
2024-01-05T19:26:52.295Z,19.52
2024-01-05T19:29:19.372Z,21.20
2024-01-05T19:31:46.593Z,22.98
2024-01-05T19:34:13.754Z,19.92
2024-01-05T19:36:45.514Z,20.05
2024-01-05T19:39:13.611Z,21.85
2024-01-05T19:41:45.552Z,22.23
2024-01-05T19:44:15.564Z,22.02
2024-01-05T19:46:42.584Z,23.35
2024-01-05T19:49:09.706Z,22.30
2024-01-05T19:51:44.800Z,21.02
2024-01-05T19:54:12.794Z,23.27
2024-01-05T19:56:39.726Z,24.20
2024-01-05T19:59:06.676Z,21.75
2024-01-05T20:01:33.785Z,21.48
2024-01-05T20:04:00.817Z,22.92
2024-01-05T20:06:33.525Z,21.52
2024-01-05T20:09:00.549Z,23.00
2024-01-05T20:11:27.443Z,23.33
2024-01-05T20:13:54.330Z,22.98
2024-01-05T20:16:21.183Z,22.35
2024-01-05T20:18:49.423Z,23.58
2024-01-05T20:21:16.687Z,21.98
2024-01-05T20:23:43.726Z,24.08
2024-01-05T20:26:21.127Z,23.20
2024-01-05T20:28:52.626Z,23.30
2024-01-05T20:31:20.381Z,24.48
2024-01-05T20:33:47.938Z,23.73
2024-01-05T20:36:17.291Z,21.55
2024-01-05T20:38:47.665Z,23.23
2024-01-05T20:41:14.734Z,21.85
2024-01-05T20:43:41.602Z,22.75
2024-01-05T20:46:08.954Z,23.08
2024-01-05T20:48:37.050Z,23.15
2024-01-05T20:51:04.240Z,22.42
2024-01-05T20:53:31.660Z,22.20
2024-01-05T20:55:58.555Z,20.05
2024-01-05T20:58:25.916Z,20.52
2024-01-05T21:00:53.134Z,20.02
2024-01-05T21:03:20.669Z,20.52
2024-01-05T21:05:50.441Z,20.10
2024-01-05T21:08:17.348Z,19.58
2024-01-05T21:10:44.330Z,18.45
2024-01-05T21:13:11.220Z,17.40
2024-01-05T21:15:38.226Z,18.80
2024-01-05T21:18:05.740Z,17.50
2024-01-05T21:20:33.235Z,17.52
2024-01-05T21:23:01.687Z,16.85
2024-01-05T21:25:30.642Z,16.58
2024-01-05T21:27:57.780Z,18.10
2024-01-05T21:30:25.124Z,17.98
2024-01-05T21:32:53.003Z,18.23
2024-01-05T21:35:20.081Z,18.40
2024-01-05T21:37:46.926Z,19.33
2024-01-05T21:40:14.042Z,18.67
2024-01-05T21:42:40.989Z,17.77
2024-01-05T21:45:08.466Z,18.27
2024-01-05T21:47:35.764Z,17.15
2024-01-05T21:50:02.755Z,19.15
2024-01-05T21:52:29.736Z,19.08
2024-01-05T21:54:56.666Z,20.92
2024-01-05T21:57:23.662Z,18.90
2024-01-05T21:59:51.255Z,19.73
2024-01-05T22:02:18.172Z,18.88
2024-01-05T22:04:45.060Z,18.55
2024-01-05T22:07:12.140Z,17.77
2024-01-05T22:09:40.082Z,19.55
2024-01-05T22:12:08.675Z,20.85
2024-01-05T22:14:35.752Z,20.63
2024-01-05T22:17:03.763Z,21.60
2024-01-05T22:19:31.098Z,21.33
2024-01-05T22:21:58.160Z,21.38
2024-01-05T22:24:27.225Z,23.85
2024-01-05T22:26:54.106Z,20.63
2024-01-05T22:29:20.979Z,18.58
2024-01-05T22:31:48.131Z,16.48
2024-01-05T22:34:15.421Z,15.48
2024-01-05T22:36:42.508Z,15.65
2024-01-05T22:39:12.743Z,15.32
2024-01-05T22:41:39.703Z,17.08
2024-01-05T22:44:06.667Z,16.85
2024-01-05T22:46:33.815Z,16.15
2024-01-05T22:49:00.943Z,16.45
2024-01-05T22:51:32.019Z,15.65
2024-01-05T22:53:59.164Z,15.50
2024-01-05T22:56:26.073Z,15.50
2024-01-05T22:58:52.999Z,15.73
2024-01-05T23:01:24.119Z,16.52
2024-01-05T23:03:52.808Z,15.27
2024-01-05T23:06:20.582Z,16.25
2024-01-05T23:08:47.689Z,15.02
2024-01-05T23:11:15.011Z,14.10
2024-01-05T23:13:42.017Z,13.88
2024-01-05T23:16:09.167Z,12.85
2024-01-05T23:18:36.429Z,13.68
2024-01-05T23:21:03.788Z,12.30
2024-01-05T23:23:30.994Z,12.27
2024-01-05T23:25:57.872Z,11.23
2024-01-05T23:28:26.092Z,11.70
2024-01-05T23:30:53.319Z,11.57
2024-01-05T23:33:20.694Z,11.55
2024-01-05T23:35:50.881Z,10.60
2024-01-05T23:38:18.027Z,11.02
2024-01-05T23:40:45.022Z,11.25
2024-01-05T23:43:12.021Z,12.32
2024-01-05T23:45:39.042Z,11.68
2024-01-05T23:48:06.340Z,12.35
2024-01-05T23:50:33.392Z,9.88
2024-01-05T23:53:03.083Z,11.50
2024-01-05T23:55:31.647Z,12.18
2024-01-05T23:57:58.643Z,12.45
